Impacts METAR Board INFO
IDs:

KJFK - New York/Kennedy Int, NY, US

Updated at: 2039 UTC 22 Feb 2018
Potential Impact None Slight Moderate High
Time22/08Z 22/09Z 22/10Z 22/11Z 22/12Z 22/13Z 22/14Z 22/15Z 22/16Z 22/17Z 22/18Z 22/19Z 22/20Z
VIS10 10 10 10 10 10 10 10 10 10 8 9 4
CIG45 49 49 49 55 32 26 28 50 48 47 41 23
CoverOVCOVCOVCOVCOVCOVCOVCOVCOVCOVCOVCOVCOVC
FltCatVFRVFRVFRVFRVFRVFRMVFRMVFRVFRVFRVFRVFRMVFR
WX-------------------RA-RA-RA-RA BR
WDir30101020201030306050704030
WSpd12 12 12 10 13 15 16 12 19 14 16 13 13
WGst-- -- -- -- -- -- 22 -- 24 -- 21 -- --
Raw hourly METARs
KJFK 220751Z 03012KT 10SM OVC045 12/03 A3048 RMK AO2 SLP321 T01170028
KJFK 220851Z 01012KT 10SM OVC049 11/04 A3050 RMK AO2 SLP328 T01060039 51026
KJFK 220951Z 01012KT 10SM OVC049 09/02 A3053 RMK AO2 SLP338 T00940022
KJFK 221051Z 02010KT 10SM OVC049 09/02 A3054 RMK AO2 SLP341 T00890022
KJFK 221151Z 02013KT 10SM OVC055 08/02 A3053 RMK AO2 SLP338 70003 T00780022 10139 20078 50010
KJFK 221251Z 01015KT 10SM SCT024 BKN032 OVC050 08/03 A3057 RMK AO2 SLP350 T00780028
KJFK 221351Z 03016G22KT 10SM OVC026 08/03 A3058 RMK AO2 SLP353 T00780028
KJFK 221451Z 03012KT 10SM BKN028 OVC055 08/02 A3061 RMK AO2 RAB15E33 PRESRR SLP364 P0000 60000 T00780022 51026
KJFK 221551Z 06019G24KT 10SM FEW031 OVC050 07/01 A3060 RMK AO2 RAB17E32 SLP362 P0000 T00720006
KJFK 221651Z 05014KT 10SM -RA FEW030 OVC048 07/00 A3059 RMK AO2 PK WND 04026/1624 RAB40 SLP358 P0000 T00670000
KJFK 221751Z 07016G21KT 8SM -RA FEW025 OVC047 07/01 A3056 RMK AO2 SLP349 P0000 60000 T00670011 10078 20067 58015
KJFK 221851Z 04013KT 9SM -RA FEW020 OVC041 06/02 A3056 RMK AO2 SLP349 P0000 T00560022
KJFK 221951Z 03013KT 4SM -RA BR FEW013 BKN023 OVC029 05/03 A3058 RMK AO2 PRESRR SLP356 P0002 T00500033